Time;durP1;ratioP1;P1;durP2;ratioP2;P2;SDS_P1;SDS_P2;PMS_P1;PMS_P2;Temp;Humidity;BMP_temperature;BMP_pressure;BME280_temperature;BME280_humidity;BME280_pressure;Samples;Min_cycle;Max_cycle;Signal;HPM_P1;HPM_P2
2023/07/15 00:01:56;;;;;;;17.08;10.10;;;;;;;27.97;53.43;101147.22;4936881;28;20085;-79
2023/07/15 00:04:40;;;;;;;19.70;9.88;;;;;;;28.09;52.63;101161.69;4900147;28;20140;-79
2023/07/15 00:07:08;;;;;;;21.13;9.88;;;;;;;28.11;52.73;101159.53;4941079;28;20512;-80
2023/07/15 00:09:42;;;;;;;18.10;9.93;;;;;;;28.05;52.32;101155.03;4945040;28;20060;-80
2023/07/15 00:12:12;;;;;;;12.55;8.13;;;;;;;28.06;52.05;101168.44;4966813;28;20082;-78
2023/07/15 00:14:39;;;;;;;15.88;9.65;;;;;;;28.01;52.29;101165.59;4946344;28;20549;-79
2023/07/15 00:17:06;;;;;;;13.70;8.23;;;;;;;28.02;52.00;101155.50;4941651;28;20108;-80
2023/07/15 00:19:36;;;;;;;26.20;10.40;;;;;;;27.92;51.97;101162.38;4932056;28;20133;-80
2023/07/15 00:22:09;;;;;;;20.25;8.98;;;;;;;27.84;51.88;101137.34;4933569;28;20053;-79
2023/07/15 00:24:35;;;;;;;16.40;9.45;;;;;;;27.44;52.14;101081.63;4980727;28;20073;-80
2023/07/15 00:27:04;;;;;;;17.80;9.65;;;;;;;27.75;51.64;101127.88;4988980;28;20049;-80
2023/07/15 00:29:36;;;;;;;16.80;8.45;;;;;;;28.01;51.22;101164.75;4973130;28;20041;-81
2023/07/15 00:32:22;;;;;;;15.20;8.55;;;;;;;27.90;50.78;101153.59;4937244;28;20129;-79
2023/07/15 00:35:15;;;;;;;13.27;9.07;;;;;;;27.94;50.58;101169.50;4911126;28;20115;-79
2023/07/15 00:37:57;;;;;;;13.10;7.93;;;;;;;27.64;50.75;101110.41;4944115;28;20053;-80
2023/07/15 00:40:25;;;;;;;16.75;8.35;;;;;;;27.53;50.01;101098.47;4960229;28;20104;-79
2023/07/15 00:43:15;;;;;;;;;;;;;;;27.85;50.11;101167.13;4934948;28;20358;-80
2023/07/15 00:45:43;;;;;;;13.18;8.25;;;;;;;27.54;50.31;101100.09;4961858;28;20016;-79
2023/07/15 00:48:24;;;;;;;17.42;9.05;;;;;;;27.69;49.94;101129.63;4951346;28;20594;-79
2023/07/15 00:50:51;;;;;;;20.10;8.63;;;;;;;27.86;50.17;101163.34;4946495;28;20458;-79
2023/07/15 00:53:18;;;;;;;22.08;9.38;;;;;;;27.82;50.24;101150.41;4952160;28;20049;-79
2023/07/15 00:55:45;;;;;;;18.88;9.30;;;;;;;27.83;49.99;101150.16;4950583;28;20053;-80
2023/07/15 00:58:14;;;;;;;18.00;8.93;;;;;;;27.55;50.03;101109.09;4994855;28;20049;-81
2023/07/15 01:00:41;;;;;;;15.95;8.18;;;;;;;27.70;50.34;101143.03;4966604;28;20081;-80
2023/07/15 01:03:11;;;;;;;12.68;7.93;;;;;;;27.63;50.39;101136.03;4955804;28;20054;-81
2023/07/15 01:05:44;;;;;;;29.25;8.30;;;;;;;27.61;50.67;101138.19;4959664;28;20058;-80
2023/07/15 01:08:18;;;;;;;13.95;8.70;;;;;;;27.53;50.64;101131.19;4949541;28;20528;-80
2023/07/15 01:10:45;;;;;;;16.55;9.13;;;;;;;27.61;50.84;101143.63;4938168;28;20498;-79
2023/07/15 01:13:12;;;;;;;13.00;8.27;;;;;;;27.60;50.85;101147.41;4933418;28;20322;-79
2023/07/15 01:15:43;;;;;;;17.30;8.70;;;;;;;27.36;51.05;101111.97;4944209;28;20104;-80
2023/07/15 01:18:16;;;;;;;13.13;8.27;;;;;;;27.40;51.06;101121.31;4950586;28;20346;-80
2023/07/15 01:20:58;;;;;;;16.42;9.05;;;;;;;27.40;51.17;101126.75;4910021;28;20363;-80
2023/07/15 01:23:30;;;;;;;17.42;8.90;;;;;;;27.55;51.10;101150.00;4917537;28;20054;-80
2023/07/15 01:25:58;;;;;;;17.13;9.17;;;;;;;27.49;51.09;101144.44;4914177;28;20089;-80
2023/07/15 01:28:25;;;;;;;18.17;9.98;;;;;;;27.28;51.54;101095.94;4941954;28;20138;-80
2023/07/15 01:30:58;;;;;;;15.93;7.97;;;;;;;27.75;52.98;101149.69;4938731;28;20129;-79
2023/07/15 01:33:25;;;;;;;16.85;8.18;;;;;;;27.60;52.01;101115.53;4933168;28;20043;-79
2023/07/15 01:35:53;;;;;;;12.35;7.47;;;;;;;27.69;52.36;101124.16;4932326;28;20054;-80
2023/07/15 01:38:26;;;;;;;16.02;8.25;;;;;;;27.75;50.19;101130.59;4950872;28;20759;-80
2023/07/15 01:40:53;;;;;;;17.70;8.73;;;;;;;27.84;49.83;101154.56;4959809;28;20050;-79
2023/07/15 01:43:20;;;;;;;14.27;8.18;;;;;;;27.79;49.16;101159.84;4938690;28;20141;-76
2023/07/15 01:45:47;;;;;;;13.23;7.28;;;;;;;27.42;48.93;101100.09;4940258;28;20095;-78
2023/07/15 01:48:13;;;;;;;16.98;8.70;;;;;;;27.54;49.18;101126.56;4954208;28;20518;-79
2023/07/15 01:50:46;;;;;;;16.38;8.40;;;;;;;27.68;49.05;101155.25;4947217;28;20338;-78
2023/07/15 01:53:21;;;;;;;16.08;7.97;;;;;;;27.66;48.49;101157.38;4898169;28;20344;-79
2023/07/15 01:55:52;;;;;;;15.52;7.70;;;;;;;27.63;48.86;101153.22;4897475;28;20153;-79
2023/07/15 01:58:24;;;;;;;16.55;7.85;;;;;;;27.53;48.97;101142.09;4911166;28;20401;-78
2023/07/15 02:00:54;;;;;;;16.48;8.10;;;;;;;27.57;49.03;101147.88;4916807;28;20325;-79
2023/07/15 02:03:21;;;;;;;15.48;7.95;;;;;;;27.61;48.30;101146.34;4960394;28;20467;-78
2023/07/15 02:05:48;;;;;;;16.33;8.10;;;;;;;27.42;48.43;101126.53;4935218;28;20633;-78
2023/07/15 02:08:15;;;;;;;11.93;7.28;;;;;;;27.47;49.36;101143.84;4956861;28;20219;-78
2023/07/15 02:10:42;;;;;;;12.85;6.97;;;;;;;27.46;49.02;101139.47;4953135;28;20231;-78
2023/07/15 02:13:11;;;;;;;13.35;7.32;;;;;;;27.43;49.25;101130.91;4937559;28;20535;-78
2023/07/15 02:15:38;;;;;;;11.93;7.05;;;;;;;27.54;48.93;101153.81;4952747;28;20686;-77
2023/07/15 02:18:11;;;;;;;15.82;8.00;;;;;;;26.73;48.81;101028.09;4936396;28;20052;-80
2023/07/15 02:20:38;;;;;;;16.10;7.45;;;;;;;27.35;49.12;101123.09;4953566;28;20494;-78
2023/07/15 02:23:07;;;;;;;18.75;7.85;;;;;;;27.40;48.37;101134.94;4916878;28;20082;-78
2023/07/15 02:25:35;;;;;;;19.42;7.57;;;;;;;27.32;48.28;101123.56;4954181;28;20078;-79
2023/07/15 02:28:02;;;;;;;15.65;8.05;;;;;;;27.38;48.40;101145.28;4950053;28;20078;-80
2023/07/15 02:30:29;;;;;;;12.15;7.75;;;;;;;27.41;48.12;101155.69;4929669;28;20043;-79
2023/07/15 02:32:58;;;;;;;14.23;7.60;;;;;;;27.29;48.54;101133.06;4919089;28;20042;-79
2023/07/15 02:35:24;;;;;;;11.85;7.65;;;;;;;27.31;48.32;101144.56;4934188;28;20047;-78
2023/07/15 02:37:52;;;;;;;15.30;7.18;;;;;;;27.28;47.80;101145.00;4912361;28;20112;-79
2023/07/15 02:40:20;;;;;;;19.25;8.02;;;;;;;26.94;48.15;101090.16;4926163;28;20428;-80
2023/07/15 02:42:53;;;;;;;15.40;7.78;;;;;;;27.17;47.86;101140.34;4948398;28;20109;-79
2023/07/15 02:45:24;;;;;;;12.40;7.72;;;;;;;27.20;48.00;101148.91;4911418;28;20101;-80
2023/07/15 02:47:55;;;;;;;13.77;7.22;;;;;;;27.24;47.62;101160.19;4904337;28;20500;-79
2023/07/15 02:50:35;;;;;;;15.63;7.63;;;;;;;27.07;47.71;101144.47;4921159;28;20085;-79
2023/07/15 02:53:08;;;;;;;18.08;7.80;;;;;;;26.82;47.46;101102.91;4928772;28;20437;-79
2023/07/15 02:55:42;;;;;;;15.05;7.53;;;;;;;26.99;47.99;101142.09;4931594;28;20116;-80
2023/07/15 02:58:19;;;;;;;12.23;7.18;;;;;;;27.05;48.17;101135.69;4899013;28;20572;-79
2023/07/15 03:00:50;;;;;;;15.20;7.32;;;;;;;27.07;52.54;101110.94;4930036;28;20323;-80
2023/07/15 03:03:19;;;;;;;12.52;6.93;;;;;;;27.22;48.79;101113.25;4904170;28;20579;-79
2023/07/15 03:05:54;;;;;;;14.50;7.18;;;;;;;27.28;47.56;101124.03;4910312;28;20442;-80
2023/07/15 03:08:25;;;;;;;11.65;6.47;;;;;;;27.38;47.47;101149.88;4909255;28;20281;-80
2023/07/15 03:10:56;;;;;;;15.25;7.65;;;;;;;27.26;47.82;101130.81;4905174;28;20271;-78
2023/07/15 03:13:27;;;;;;;13.13;7.05;;;;;;;27.32;47.75;101139.94;4929110;28;20050;-80
2023/07/15 03:15:57;;;;;;;13.57;6.80;;;;;;;27.08;48.20;101107.97;4923613;28;20138;-80
2023/07/15 03:18:25;;;;;;;16.50;7.90;;;;;;;27.06;47.36;101103.81;4925958;28;20175;-79
2023/07/15 03:20:52;;;;;;;17.08;7.43;;;;;;;27.17;47.52;101154.78;4912094;28;20146;-80
2023/07/15 03:23:22;;;;;;;14.88;7.15;;;;;;;26.97;47.78;101133.31;4899864;28;20129;-79
2023/07/15 03:25:49;;;;;;;11.35;7.55;;;;;;;26.90;48.17;101132.56;4896734;28;20522;-79
2023/07/15 03:28:16;;;;;;;16.77;7.47;;;;;;;26.98;48.09;101156.75;4904020;28;20483;-80
2023/07/15 03:30:43;;;;;;;20.45;7.55;;;;;;;26.92;47.73;101152.25;4901902;28;20042;-79
2023/07/15 03:33:15;;;;;;;12.70;7.18;;;;;;;26.75;49.18;101113.06;4920644;28;20146;-79
2023/07/15 03:35:46;;;;;;;13.52;7.07;;;;;;;27.04;48.41;101155.84;4919310;28;20047;-79
2023/07/15 03:38:13;;;;;;;11.15;5.82;;;;;;;27.02;48.75;101147.06;4923697;28;20051;-79
2023/07/15 03:40:39;;;;;;;14.10;7.55;;;;;;;26.89;47.80;101114.53;4909373;28;20050;-80
2023/07/15 03:43:06;;;;;;;13.60;7.72;;;;;;;27.13;47.25;101167.22;4924998;28;20097;-78
2023/07/15 03:45:35;;;;;;;16.45;7.07;;;;;;;26.84;46.93;101117.97;4922923;28;20142;-79
2023/07/15 03:48:09;;;;;;;14.85;7.15;;;;;;;27.08;46.93;101167.91;4895734;28;20277;-80
2023/07/15 03:50:46;;;;;;;13.25;6.90;;;;;;;26.84;46.29;101142.47;4916043;28;20311;-78
2023/07/15 03:53:18;;;;;;;20.17;7.00;;;;;;;26.74;46.14;101141.38;4916720;28;20140;-79
2023/07/15 03:55:51;;;;;;;13.57;7.50;;;;;;;26.70;46.58;101138.31;4905418;28;20178;-79
2023/07/15 03:58:17;;;;;;;17.98;7.22;;;;;;;26.81;46.33;101158.47;4948915;28;20042;-79
2023/07/15 04:00:44;;;;;;;12.45;6.85;;;;;;;26.78;47.13;101139.88;4954423;28;20061;-79
2023/07/15 04:03:11;;;;;;;15.82;6.53;;;;;;;26.67;46.82;101127.03;4963586;28;20290;-78
2023/07/15 04:05:41;;;;;;;19.10;6.55;;;;;;;26.80;45.95;101159.53;4944823;28;20480;-78
2023/07/15 04:08:08;;;;;;;11.30;6.40;;;;;;;26.64;46.13;101145.47;4912546;28;20467;-79
2023/07/15 04:10:35;;;;;;;9.30;6.45;;;;;;;26.81;46.27;101161.19;4959870;28;20494;-79
2023/07/15 04:13:02;;;;;;;14.38;6.35;;;;;;;26.53;46.47;101126.34;4970165;28;20125;-79
2023/07/15 04:15:32;;;;;;;11.32;6.60;;;;;;;26.46;46.75;101131.03;4948726;28;20097;-79
2023/07/15 04:17:58;;;;;;;16.83;7.25;;;;;;;26.37;47.04;101111.47;4951396;28;20397;-79
2023/07/15 04:20:26;;;;;;;23.85;7.40;;;;;;;26.64;46.99;101161.00;4920358;28;20767;-79
2023/07/15 04:22:53;;;;;;;13.20;7.65;;;;;;;26.64;47.44;101163.72;4946354;28;20402;-78
2023/07/15 04:25:22;;;;;;;10.10;7.03;;;;;;;26.55;49.98;101146.03;4966459;28;20373;-79
2023/07/15 04:27:53;;;;;;;19.33;6.78;;;;;;;26.66;47.87;101158.88;4923979;28;20062;-80
2023/07/15 04:30:22;;;;;;;10.55;6.45;;;;;;;26.52;47.58;101133.69;4929961;28;20451;-80
2023/07/15 04:32:50;;;;;;;14.77;6.72;;;;;;;26.56;47.41;101134.91;4968478;28;20046;-79
2023/07/15 04:35:17;;;;;;;14.70;6.57;;;;;;;26.31;47.58;101101.50;4992167;28;20046;-79
2023/07/15 04:37:44;;;;;;;17.27;6.63;;;;;;;26.79;48.64;101179.66;4967827;28;20053;-78
2023/07/15 04:40:11;;;;;;;11.60;6.63;;;;;;;26.85;48.86;101173.28;4982825;28;20097;-78
2023/07/15 04:42:38;;;;;;;17.95;7.22;;;;;;;26.91;47.16;101166.91;4956289;28;20484;-79
2023/07/15 04:45:05;;;;;;;14.77;6.65;;;;;;;27.02;46.91;101165.31;4967758;28;20053;-79
2023/07/15 04:47:33;;;;;;;7.88;5.75;;;;;;;27.10;46.97;101178.59;4968017;28;20068;-80
2023/07/15 04:50:01;;;;;;;13.30;6.20;;;;;;;27.15;47.05;101175.16;4966029;28;20128;-79
2023/07/15 04:52:28;;;;;;;14.30;5.97;;;;;;;27.17;47.09;101170.31;4958195;28;20138;-80
2023/07/15 04:54:55;;;;;;;12.60;6.88;;;;;;;27.16;46.57;101166.78;4989026;28;20140;-79
2023/07/15 04:57:22;;;;;;;13.88;6.28;;;;;;;27.14;46.99;101165.31;4972127;28;20246;-80
2023/07/15 04:59:52;;;;;;;12.13;7.18;;;;;;;27.08;47.84;101183.44;4965657;28;20091;-79
2023/07/15 05:02:19;;;;;;;14.57;6.82;;;;;;;26.91;47.50;101166.09;4946063;28;20163;-79
2023/07/15 05:04:45;;;;;;;13.35;7.25;;;;;;;26.90;47.74;101165.25;4933990;28;20065;-78
2023/07/15 05:07:12;;;;;;;11.88;6.35;;;;;;;27.05;47.96;101179.28;4973726;28;20046;-78
2023/07/15 05:09:39;;;;;;;9.27;6.03;;;;;;;27.10;47.29;101175.03;4971283;28;20364;-79
2023/07/15 05:12:07;;;;;;;10.88;6.82;;;;;;;27.34;47.68;101200.50;4985243;28;20387;-79
2023/07/15 05:14:34;;;;;;;13.27;6.93;;;;;;;27.32;47.28;101189.81;4966370;28;20504;-78
2023/07/15 05:17:02;;;;;;;15.68;6.40;;;;;;;27.25;47.27;101189.09;4976959;28;20370;-79
2023/07/15 05:19:30;;;;;;;12.30;6.82;;;;;;;27.14;47.79;101170.75;4952057;28;20053;-81
2023/07/15 05:21:56;;;;;;;13.43;7.32;;;;;;;27.28;47.31;101191.34;4951325;28;20517;-81
2023/07/15 05:24:28;;;;;;;14.10;6.15;;;;;;;27.20;47.52;101180.78;4945524;28;20132;-79
2023/07/15 05:26:55;;;;;;;13.35;6.85;;;;;;;27.19;47.49;101177.22;4959884;28;20078;-80
2023/07/15 05:29:25;;;;;;;19.88;7.40;;;;;;;27.12;47.48;101156.56;4961609;28;20083;-80
2023/07/15 05:31:51;;;;;;;15.45;6.97;;;;;;;27.35;47.05;101183.06;4971332;28;20294;-79
2023/07/15 05:34:19;;;;;;;13.48;7.20;;;;;;;27.36;47.52;101199.19;4970270;28;20570;-81
2023/07/15 05:36:47;;;;;;;12.43;6.65;;;;;;;27.55;47.62;101210.84;4966466;28;20062;-80
2023/07/15 05:39:15;;;;;;;14.65;7.50;;;;;;;27.52;47.11;101205.03;4955456;28;20133;-80
2023/07/15 05:41:42;;;;;;;13.10;6.75;;;;;;;27.59;47.19;101205.75;4954001;28;20358;-79
2023/07/15 05:44:11;;;;;;;13.07;7.13;;;;;;;27.45;47.76;101189.63;4946638;28;20054;-80
2023/07/15 05:46:38;;;;;;;16.48;6.93;;;;;;;27.64;46.84;101214.06;4960681;28;20073;-80
2023/07/15 05:49:05;;;;;;;11.32;6.65;;;;;;;27.55;47.27;101189.03;4940267;28;20059;-80
2023/07/15 05:51:32;;;;;;;17.25;6.93;;;;;;;27.62;47.26;101197.09;4969429;28;20061;-80
2023/07/15 05:53:59;;;;;;;12.43;6.82;;;;;;;27.62;46.90;101188.91;4967659;28;20073;-80
2023/07/15 05:56:29;;;;;;;17.42;6.80;;;;;;;27.76;46.56;101208.63;4949983;28;20129;-80
2023/07/15 05:58:56;;;;;;;11.50;6.83;;;;;;;27.81;46.91;101212.28;4974782;28;20629;-80
2023/07/15 06:01:23;;;;;;;21.70;8.90;;;;;;;27.75;47.07;101188.69;4970829;28;20312;-79
2023/07/15 06:03:49;;;;;;;15.60;7.65;;;;;;;27.87;47.04;101200.47;4970797;28;20533;-80
2023/07/15 06:06:21;;;;;;;15.15;7.72;;;;;;;27.74;47.51;101176.09;4959934;28;20059;-81
2023/07/15 06:08:51;;;;;;;22.45;8.63;;;;;;;28.05;47.60;101220.53;4952599;28;20145;-81
2023/07/15 06:11:19;;;;;;;20.85;8.43;;;;;;;28.12;47.26;101221.22;4965160;28;20038;-80
2023/07/15 06:13:45;;;;;;;12.15;7.18;;;;;;;27.98;47.80;101201.53;4961930;28;20482;-80
2023/07/15 06:16:12;;;;;;;18.05;8.32;;;;;;;27.73;47.78;101151.81;4936118;28;20060;-80
2023/07/15 06:18:39;;;;;;;12.27;8.88;;;;;;;27.22;47.27;101064.19;4958070;28;20077;-82
2023/07/15 06:21:11;;;;;;;13.95;7.57;;;;;;;28.00;47.56;101188.47;4959707;28;20077;-80
2023/07/15 06:23:40;;;;;;;18.95;9.02;;;;;;;28.27;47.06;101228.94;4957456;28;20046;-80
2023/07/15 06:26:08;;;;;;;17.25;8.00;;;;;;;28.23;46.41;101217.66;4937988;28;20046;-80
2023/07/15 06:28:34;;;;;;;14.55;8.15;;;;;;;27.29;47.21;101073.09;4921532;28;20205;-79
2023/07/15 06:31:07;;;;;;;17.55;8.05;;;;;;;28.17;47.77;101215.06;4942641;28;20054;-81
2023/07/15 06:33:39;;;;;;;13.57;8.68;;;;;;;28.31;47.56;101230.94;4930324;28;20414;-80
2023/07/15 06:36:06;;;;;;;12.15;7.47;;;;;;;28.18;46.86;101201.19;4955855;28;20050;-80
2023/07/15 06:38:33;;;;;;;13.02;7.32;;;;;;;27.87;48.03;101165.00;4922686;28;20062;-80
2023/07/15 06:41:01;;;;;;;12.85;8.13;;;;;;;28.31;46.89;101224.66;4940524;28;20379;-80
2023/07/15 06:43:28;;;;;;;19.27;8.23;;;;;;;27.98;46.79;101163.31;4949105;28;20054;-80
2023/07/15 06:45:54;;;;;;;13.82;8.27;;;;;;;28.46;46.92;101237.84;4942923;28;20126;-80
2023/07/15 06:48:22;;;;;;;13.23;9.02;;;;;;;27.85;47.00;101134.41;4955306;28;20118;-80
2023/07/15 06:50:52;;;;;;;16.45;8.40;;;;;;;28.60;46.73;101241.16;4959346;28;20123;-78
2023/07/15 06:53:19;;;;;;;19.67;9.15;;;;;;;28.48;45.89;101211.94;4953342;28;20053;-80
2023/07/15 06:55:46;;;;;;;18.25;7.35;;;;;;;28.51;46.61;101225.13;4980900;28;20415;-79
2023/07/15 06:58:12;;;;;;;17.70;7.82;;;;;;;28.64;45.81;101234.13;4961730;28;20065;-80
2023/07/15 07:00:41;;;;;;;13.75;8.52;;;;;;;28.62;46.28;101233.53;4953514;28;20057;-78
2023/07/15 07:03:08;;;;;;;22.15;10.02;;;;;;;28.60;46.84;101243.88;4974095;28;20457;-80
2023/07/15 07:05:38;;;;;;;17.95;8.00;;;;;;;28.63;46.96;101237.94;4956998;28;20130;-79
2023/07/15 07:08:09;;;;;;;13.07;7.10;;;;;;;28.59;46.82;101221.19;4949318;28;20259;-79
2023/07/15 07:10:36;;;;;;;16.50;8.70;;;;;;;28.86;46.15;101248.81;4941761;28;20501;-79
2023/07/15 07:13:10;;;;;;;18.67;8.85;;;;;;;28.77;46.37;101240.13;4966413;28;20050;-79
2023/07/15 07:15:37;;;;;;;19.27;8.73;;;;;;;28.73;47.11;101216.28;4964165;28;20058;-80
2023/07/15 07:18:04;;;;;;;19.20;9.68;;;;;;;28.84;47.59;101233.72;4942692;28;20735;-80
2023/07/15 07:20:31;;;;;;;14.68;9.90;;;;;;;28.77;46.60;101212.81;4949609;28;20525;-80
2023/07/15 07:22:58;;;;;;;16.02;10.15;;;;;;;28.86;47.48;101232.41;4964071;28;20566;-79
2023/07/15 07:25:25;;;;;;;17.20;10.75;;;;;;;28.58;47.46;101189.50;4978225;28;20050;-80
2023/07/15 07:27:52;;;;;;;23.55;10.55;;;;;;;28.70;47.24;101211.31;4968952;28;20113;-79
2023/07/15 07:30:19;;;;;;;21.20;11.75;;;;;;;28.72;47.89;101228.28;4967465;28;20089;-78
2023/07/15 07:32:49;;;;;;;23.55;11.60;;;;;;;28.47;47.51;101168.50;4972422;28;20752;-77
2023/07/15 07:35:17;;;;;;;21.13;10.60;;;;;;;28.73;47.99;101210.81;4959542;28;20138;-78
2023/07/15 07:37:44;;;;;;;22.92;12.27;;;;;;;28.48;47.90;101151.06;4927718;28;20085;-79
2023/07/15 07:40:11;;;;;;;31.90;14.73;;;;;;;28.93;48.38;101215.84;4927558;28;20105;-79
2023/07/15 07:42:38;;;;;;;23.95;11.65;;;;;;;28.98;48.28;101214.06;4944356;28;20109;-77
2023/07/15 07:45:15;;;;;;;21.27;11.27;;;;;;;28.91;48.61;101207.91;4939692;28;20050;-78
2023/07/15 07:47:45;;;;;;;24.63;15.35;;;;;;;29.06;48.99;101217.47;4961308;28;20507;-79
2023/07/15 07:50:12;;;;;;;20.85;11.05;;;;;;;29.03;48.67;101204.28;4946838;28;20055;-78
2023/07/15 07:52:39;;;;;;;31.20;13.18;;;;;;;28.96;49.38;101190.78;4944890;28;20445;-79
2023/07/15 07:55:06;;;;;;;26.77;12.82;;;;;;;29.07;49.33;101214.50;4949717;28;20573;-77
2023/07/15 07:57:33;;;;;;;28.30;15.10;;;;;;;29.11;49.29;101214.88;4942603;28;20394;-81
2023/07/15 08:00:00;;;;;;;22.60;11.80;;;;;;;28.86;49.82;101194.16;4953346;28;20054;-79
2023/07/15 08:02:27;;;;;;;19.85;11.45;;;;;;;29.01;49.66;101215.47;4960832;28;20077;-81
2023/07/15 08:04:57;;;;;;;24.90;12.13;;;;;;;29.13;49.85;101209.97;4979814;28;20506;-80
2023/07/15 08:07:24;;;;;;;25.35;12.18;;;;;;;29.04;49.56;101187.63;4960728;28;20056;-79
2023/07/15 08:09:51;;;;;;;27.73;15.07;;;;;;;29.21;48.67;101195.91;4970399;28;20076;-79
2023/07/15 08:12:20;;;;;;;23.15;12.38;;;;;;;29.22;48.97;101196.72;4979333;28;20497;-78
2023/07/15 08:14:47;;;;;;;17.17;11.70;;;;;;;29.21;48.94;101195.09;4983302;28;20367;-78
2023/07/15 08:17:14;;;;;;;25.67;14.98;;;;;;;29.34;49.71;101211.16;5006874;28;20073;-80
2023/07/15 08:19:41;;;;;;;29.20;13.35;;;;;;;29.35;49.30;101208.19;4971247;28;20077;-80
2023/07/15 08:22:08;;;;;;;28.35;13.45;;;;;;;29.18;49.55;101180.81;4965004;28;20413;-79
2023/07/15 08:24:35;;;;;;;24.67;11.48;;;;;;;28.71;49.56;101096.31;4959989;28;20361;-80
2023/07/15 08:27:05;;;;;;;19.63;12.55;;;;;;;29.60;49.87;101212.44;4978989;28;20149;-79
2023/07/15 08:29:34;;;;;;;22.70;11.05;;;;;;;29.79;49.69;101213.88;4931178;28;20504;-81
2023/07/15 08:32:01;;;;;;;20.48;14.13;;;;;;;29.74;49.87;101204.75;4953231;28;20053;-80
2023/07/15 08:34:32;;;;;;;25.17;13.70;;;;;;;29.77;49.23;101199.59;4959644;28;20043;-80
2023/07/15 08:37:00;;;;;;;16.75;9.02;;;;;;;30.15;49.27;101203.44;4937666;28;20448;-79
2023/07/15 08:39:27;;;;;;;24.27;11.95;;;;;;;29.77;49.15;101168.69;4931964;28;20755;-80
2023/07/15 08:41:55;;;;;;;21.80;13.65;;;;;;;30.08;49.40;101219.22;4949460;28;20064;-79
2023/07/15 08:44:26;;;;;;;21.25;11.88;;;;;;;30.12;48.90;101223.09;4918734;28;20051;-80
2023/07/15 08:46:58;;;;;;;24.92;12.20;;;;;;;29.77;49.48;101182.34;4954338;28;20103;-79
2023/07/15 08:49:28;;;;;;;18.70;10.15;;;;;;;29.93;49.51;101197.06;4938647;28;20042;-79
2023/07/15 08:51:57;;;;;;;19.63;11.40;;;;;;;29.98;49.73;101188.97;4967600;28;20089;-80
2023/07/15 08:54:28;;;;;;;23.15;13.40;;;;;;;30.07;49.59;101198.38;4981844;28;20048;-80
2023/07/15 08:56:56;;;;;;;18.38;11.00;;;;;;;30.30;49.61;101222.03;4976937;28;20266;-80
2023/07/15 08:59:26;;;;;;;16.33;11.38;;;;;;;30.18;49.31;101193.91;4955933;28;20768;-80
2023/07/15 09:01:56;;;;;;;19.38;13.63;;;;;;;30.42;49.23;101228.22;4982178;28;20050;-79
2023/07/15 09:04:23;;;;;;;22.75;14.07;;;;;;;30.32;48.83;101206.19;5005060;28;20057;-79
2023/07/15 09:06:50;;;;;;;23.77;14.48;;;;;;;30.32;47.79;101189.75;4992417;28;20204;-80
2023/07/15 09:09:17;;;;;;;29.75;15.02;;;;;;;30.28;48.15;101191.31;4950017;28;20041;-79
2023/07/15 09:11:43;;;;;;;36.33;15.32;;;;;;;30.48;48.10;101220.88;4949992;28;20122;-80
2023/07/15 09:14:15;;;;;;;26.73;13.70;;;;;;;30.01;48.75;101131.78;4953002;28;20084;-79
2023/07/15 09:16:42;;;;;;;23.38;13.60;;;;;;;30.64;49.17;101230.13;4963769;28;20115;-79
2023/07/15 09:19:10;;;;;;;21.77;12.75;;;;;;;30.24;48.18;101154.53;4970210;28;20111;-80
2023/07/15 09:21:37;;;;;;;21.67;12.35;;;;;;;30.65;47.30;101209.84;4951496;28;20053;-79
2023/07/15 09:24:05;;;;;;;16.98;10.73;;;;;;;30.81;47.62;101230.88;4970764;28;20107;-79
2023/07/15 09:26:36;;;;;;;14.60;9.93;;;;;;;30.93;47.45;101183.34;4984745;28;20361;-81
2023/07/15 09:29:04;;;;;;;22.38;10.25;;;;;;;31.18;47.53;101229.38;4971581;28;20057;-80
2023/07/15 09:31:31;;;;;;;16.05;10.63;;;;;;;30.31;47.83;101133.28;4970588;28;20045;-82
2023/07/15 09:34:05;;;;;;;13.98;9.82;;;;;;;30.69;48.10;101211.00;4978297;28;20053;-80
2023/07/15 09:36:34;;;;;;;24.52;12.68;;;;;;;30.77;47.90;101240.69;4952131;28;20057;-81
2023/07/15 09:39:15;;;;;;;14.95;10.70;;;;;;;30.83;47.23;101234.22;4962427;28;20046;-80
2023/07/15 09:41:42;;;;;;;13.75;10.77;;;;;;;30.62;46.69;101182.97;4962091;28;20042;-80
2023/07/15 09:44:14;;;;;;;13.48;10.15;;;;;;;31.07;46.12;101233.91;4974192;28;20082;-81
2023/07/15 09:46:49;;;;;;;15.85;9.80;;;;;;;31.48;46.19;101224.22;4967153;28;20146;-80
2023/07/15 09:49:16;;;;;;;14.98;10.38;;;;;;;31.35;45.46;101212.81;4951877;28;20050;-80
2023/07/15 09:51:43;;;;;;;15.25;9.32;;;;;;;31.38;46.39;101228.75;4959995;28;20052;-80
2023/07/15 09:54:10;;;;;;;23.35;13.35;;;;;;;31.48;45.34;101231.59;4971557;28;20136;-78
2023/07/15 09:56:43;;;;;;;19.80;10.73;;;;;;;31.63;45.66;101226.25;4972523;28;20050;-79
2023/07/15 09:59:20;;;;;;;18.58;11.02;;;;;;;31.75;45.76;101234.31;4980824;28;20291;-80
2023/07/15 10:01:50;;;;;;;26.35;14.43;;;;;;;31.40;46.19;101210.16;4952765;28;20728;-81
2023/07/15 10:04:33;;;;;;;21.67;12.57;;;;;;;31.59;45.66;101216.06;4940514;28;20699;-82
2023/07/15 10:07:03;;;;;;;20.90;11.60;;;;;;;31.53;43.98;101206.94;4937564;28;20076;-79
2023/07/15 10:09:31;;;;;;;18.55;10.05;;;;;;;31.89;45.39;101234.66;4971746;28;20259;-79
2023/07/15 10:11:59;;;;;;;17.83;11.15;;;;;;;31.75;44.78;101215.09;4958545;28;20489;-79
2023/07/15 10:14:29;;;;;;;22.80;12.07;;;;;;;32.03;43.25;101227.66;4980877;28;20042;-80
2023/07/15 10:17:12;;;;;;;23.83;12.00;;;;;;;32.18;44.36;101220.59;4961267;28;20516;-79
2023/07/15 10:19:41;;;;;;;22.13;12.35;;;;;;;32.30;44.08;101227.53;4942869;28;20042;-80
2023/07/15 10:22:10;;;;;;;24.55;11.27;;;;;;;32.25;44.71;101233.00;4961538;28;20092;-80
2023/07/15 10:24:40;;;;;;;19.88;14.05;;;;;;;32.40;42.87;101228.69;4972356;28;20808;-80
2023/07/15 10:27:10;;;;;;;24.48;11.77;;;;;;;32.45;43.41;101224.03;4959664;28;20085;-79
2023/07/15 10:29:39;;;;;;;23.08;13.35;;;;;;;32.47;43.23;101212.78;4966040;28;20053;-80
2023/07/15 10:32:16;;;;;;;24.35;14.23;;;;;;;32.55;42.65;101177.41;4965650;28;20655;-80
2023/07/15 10:34:51;;;;;;;23.20;11.85;;;;;;;32.74;42.93;101207.13;4960290;28;20046;-80
2023/07/15 10:37:19;;;;;;;23.70;13.00;;;;;;;32.30;42.17;101142.38;4931538;28;20058;-81
2023/07/15 10:39:48;;;;;;;14.07;10.65;;;;;;;32.97;43.12;101212.16;4956165;28;20215;-80
2023/07/15 10:42:18;;;;;;;18.65;10.85;;;;;;;32.55;43.08;101160.94;4950174;28;20057;-81
2023/07/15 10:44:54;;;;;;;19.05;11.10;;;;;;;32.47;43.74;101174.31;4945891;28;20124;-80
2023/07/15 10:47:21;;;;;;;14.75;10.50;;;;;;;32.36;43.89;101184.47;4967052;28;20049;-78
2023/07/15 10:49:48;;;;;;;16.30;10.02;;;;;;;32.06;44.74;101191.44;4965093;28;20417;-79
2023/07/15 10:52:19;;;;;;;16.60;11.25;;;;;;;31.83;45.05;101189.91;4973215;28;21060;-78
2023/07/15 10:54:47;;;;;;;23.20;11.90;;;;;;;31.37;43.72;101150.28;4981498;28;20077;-82
2023/07/15 10:57:15;;;;;;;18.02;10.35;;;;;;;32.14;44.54;101188.19;4982986;28;20371;-80
2023/07/15 10:59:44;;;;;;;19.88;10.25;;;;;;;31.90;45.15;101178.69;4984252;28;20081;-80
2023/07/15 11:02:12;;;;;;;18.08;10.43;;;;;;;32.17;44.45;101175.84;4995582;28;21299;-79
2023/07/15 11:04:40;;;;;;;16.50;10.38;;;;;;;31.87;44.22;101177.31;4984490;28;20053;-80
2023/07/15 11:07:10;;;;;;;17.65;10.05;;;;;;;32.02;44.98;101178.50;4977522;28;20052;-79
2023/07/15 11:09:41;;;;;;;20.20;12.52;;;;;;;31.55;43.70;101124.38;4927962;28;20093;-80
2023/07/15 11:12:11;;;;;;;15.73;10.45;;;;;;;31.86;44.96;101164.66;4946980;28;20453;-79
2023/07/15 11:14:43;;;;;;;15.20;10.90;;;;;;;32.00;44.54;101159.56;4959886;28;20104;-78
2023/07/15 11:17:14;;;;;;;13.00;9.45;;;;;;;32.09;44.49;101141.47;4975720;28;20074;-80
2023/07/15 11:19:45;;;;;;;15.02;9.65;;;;;;;32.41;44.19;101153.44;4956310;28;20077;-81
2023/07/15 11:22:17;;;;;;;14.73;11.10;;;;;;;32.46;43.00;101165.25;4943412;28;20045;-80
2023/07/15 11:24:46;;;;;;;15.02;10.95;;;;;;;32.60;42.24;101157.38;4966259;28;20140;-78